createdAt,value
2019-03-12T00:00:34.917Z,1017.70
2019-03-12T00:01:34.945Z,1017.65
2019-03-12T00:02:34.887Z,1017.63
2019-03-12T00:03:34.957Z,1017.70
2019-03-12T00:04:34.867Z,1017.66
2019-03-12T00:05:34.894Z,1017.66
2019-03-12T00:06:34.846Z,1017.68
2019-03-12T00:07:34.884Z,1017.66
2019-03-12T00:08:34.817Z,1017.72
2019-03-12T00:09:34.893Z,1017.69
2019-03-12T00:10:34.810Z,1017.70
2019-03-12T00:11:34.805Z,1017.60
2019-03-12T00:12:34.792Z,1017.68
2019-03-12T00:13:34.815Z,1017.64
2019-03-12T00:14:34.752Z,1017.69
2019-03-12T00:15:34.836Z,1017.65
2019-03-12T00:16:34.746Z,1017.67
2019-03-12T00:17:34.755Z,1017.71
2019-03-12T00:18:34.738Z,1017.70
2019-03-12T00:19:35.788Z,1017.72
2019-03-12T00:20:34.694Z,1017.72
2019-03-12T00:21:35.728Z,1017.71
2019-03-12T00:22:34.673Z,1017.72
2019-03-12T00:23:34.685Z,1017.80
2019-03-12T00:24:34.646Z,1017.86
2019-03-12T00:25:42.276Z,1017.88
2019-03-12T00:26:34.638Z,1017.89
2019-03-12T00:27:35.636Z,1017.89
2019-03-12T00:28:34.608Z,1017.93
2019-03-12T00:29:34.620Z,1017.89
2019-03-12T00:30:34.581Z,1017.92
2019-03-12T00:31:34.690Z,1017.88
2019-03-12T00:32:34.561Z,1017.86
2019-03-12T00:33:34.648Z,1017.87
2019-03-12T00:34:34.543Z,1017.89
2019-03-12T00:35:34.561Z,1017.88
2019-03-12T00:36:34.535Z,1017.92
2019-03-12T00:37:34.582Z,1017.88
2019-03-12T00:38:34.506Z,1017.88
2019-03-12T00:39:34.588Z,1017.88
2019-03-12T00:40:34.492Z,1017.90
2019-03-12T00:41:34.535Z,1017.94
2019-03-12T00:42:34.457Z,1017.95
2019-03-12T00:43:34.522Z,1017.94
2019-03-12T00:44:34.434Z,1017.96
2019-03-12T00:45:34.524Z,1017.93
2019-03-12T00:46:34.427Z,1017.95
2019-03-12T00:47:34.437Z,1017.92
2019-03-12T00:48:34.387Z,1017.96
2019-03-12T00:49:34.465Z,1017.95
2019-03-12T00:50:34.362Z,1017.98
2019-03-12T00:51:34.414Z,1017.99
2019-03-12T00:52:34.367Z,1017.97
2019-03-12T00:53:34.404Z,1017.98
2019-03-12T00:54:34.321Z,1018.02
2019-03-12T00:55:34.389Z,1018.02
2019-03-12T00:56:34.344Z,1018.06
2019-03-12T00:57:34.304Z,1018.07
2019-03-12T00:58:34.279Z,1018.05
2019-03-12T00:59:34.310Z,1018.11
2019-03-12T01:00:34.254Z,1018.06
2019-03-12T01:01:34.363Z,1018.08
2019-03-12T01:02:34.259Z,1018.09
2019-03-12T01:03:34.236Z,1018.10
2019-03-12T01:04:34.218Z,1018.12
2019-03-12T01:05:34.254Z,1018.09
2019-03-12T01:06:34.203Z,1018.07
2019-03-12T01:07:43.178Z,1018.02
2019-03-12T01:08:34.177Z,1018.04
2019-03-12T01:09:34.194Z,1017.97
2019-03-12T01:10:34.155Z,1018.01
2019-03-12T01:11:34.233Z,1017.97
2019-03-12T01:12:34.127Z,1018.02
2019-03-12T01:13:36.149Z,1018.05
2019-03-12T01:14:34.134Z,1018.00
2019-03-12T01:15:34.122Z,1017.94
2019-03-12T01:16:34.098Z,1018.02
2019-03-12T01:17:34.128Z,1018.01
2019-03-12T01:18:34.086Z,1017.96
2019-03-12T01:19:34.156Z,1018.00
2019-03-12T01:20:34.063Z,1017.93
2019-03-12T01:21:34.085Z,1017.95
2019-03-12T01:22:34.018Z,1017.91
2019-03-12T01:23:34.089Z,1017.94
2019-03-12T01:24:34.008Z,1017.92
2019-03-12T01:25:34.083Z,1017.92
2019-03-12T01:26:33.999Z,1017.99
2019-03-12T01:27:34.009Z,1017.98
2019-03-12T01:28:33.957Z,1017.93
2019-03-12T01:29:34.010Z,1017.88
2019-03-12T01:30:33.936Z,1017.92
2019-03-12T01:31:34.055Z,1017.93
2019-03-12T01:32:33.924Z,1017.90
2019-03-12T01:33:33.938Z,1017.91
2019-03-12T01:34:33.890Z,1017.82
2019-03-12T01:35:33.947Z,1017.82
2019-03-12T01:36:33.882Z,1017.81
2019-03-12T01:37:33.972Z,1017.79
2019-03-12T01:38:33.899Z,1017.75
2019-03-12T01:39:33.878Z,1017.79
2019-03-12T01:40:33.824Z,1017.70
2019-03-12T01:41:33.921Z,1017.71
2019-03-12T01:42:33.817Z,1017.72
2019-03-12T01:43:33.901Z,1017.73
2019-03-12T01:44:33.784Z,1017.73
2019-03-12T01:45:33.816Z,1017.70
2019-03-12T01:46:33.767Z,1017.75
2019-03-12T01:47:33.857Z,1017.75
2019-03-12T01:48:33.739Z,1017.71
2019-03-12T01:49:33.836Z,1017.69
2019-03-12T01:50:33.751Z,1017.66
2019-03-12T01:51:33.752Z,1017.64
2019-03-12T01:52:33.709Z,1017.55
2019-03-12T01:53:33.764Z,1017.63
2019-03-12T01:54:33.686Z,1017.59
2019-03-12T01:55:33.777Z,1017.58
2019-03-12T01:56:33.658Z,1017.57
2019-03-12T01:57:33.716Z,1017.57
2019-03-12T01:58:33.636Z,1017.57
2019-03-12T01:59:35.646Z,1017.55
2019-03-12T02:00:33.632Z,1017.55
2019-03-12T02:01:33.613Z,1017.54
2019-03-12T02:02:33.610Z,1017.62
2019-03-12T02:03:33.634Z,1017.57
2019-03-12T02:04:33.585Z,1017.55
2019-03-12T02:05:33.643Z,1017.54
2019-03-12T02:06:33.548Z,1017.50
2019-03-12T02:07:33.615Z,1017.47
2019-03-12T02:08:33.525Z,1017.48
2019-03-12T02:09:33.605Z,1017.43
2019-03-12T02:10:33.504Z,1017.46
2019-03-12T02:11:33.586Z,1017.44
2019-03-12T02:12:33.502Z,1017.41
2019-03-12T02:13:33.492Z,1017.37
2019-03-12T02:14:33.462Z,1017.33
2019-03-12T02:15:33.507Z,1017.30
2019-03-12T02:16:34.988Z,1017.30
2019-03-12T02:17:33.556Z,1017.23
2019-03-12T02:18:33.420Z,1017.27
2019-03-12T02:19:33.516Z,1017.20
2019-03-12T02:20:33.413Z,1017.21
2019-03-12T02:21:33.448Z,1017.17
2019-03-12T02:22:33.386Z,1017.11
2019-03-12T02:23:33.460Z,1017.20
2019-03-12T02:24:33.363Z,1017.12
2019-03-12T02:25:33.376Z,1017.09
2019-03-12T02:26:33.337Z,1017.13
2019-03-12T02:27:33.428Z,1017.11
2019-03-12T02:28:33.313Z,1017.14
2019-03-12T02:29:33.398Z,1017.09
2019-03-12T02:30:33.303Z,1017.13
2019-03-12T02:31:33.311Z,1017.16
2019-03-12T02:32:33.364Z,1017.07
2019-03-12T02:33:33.359Z,1017.10
2019-03-12T02:34:33.309Z,1017.06
2019-03-12T02:35:33.368Z,1017.14
2019-03-12T02:36:33.237Z,1017.11
2019-03-12T02:37:35.328Z,1017.11
2019-03-12T02:38:33.213Z,1017.08
2019-03-12T02:39:42.172Z,1017.08
2019-03-12T02:40:33.181Z,1017.10
2019-03-12T02:41:42.190Z,1017.07
2019-03-12T02:42:33.177Z,1017.12
2019-03-12T02:43:33.192Z,1017.13
2019-03-12T02:44:33.161Z,1017.04
2019-03-12T02:45:35.160Z,1017.10
2019-03-12T02:46:33.113Z,1017.05
2019-03-12T02:47:33.141Z,1017.07
2019-03-12T02:48:33.109Z,1017.08
2019-03-12T02:49:33.148Z,1017.09
2019-03-12T02:50:33.076Z,1017.10
2019-03-12T02:51:33.199Z,1017.03
2019-03-12T02:52:33.072Z,1017.10
2019-03-12T02:53:33.180Z,1017.08
2019-03-12T02:54:33.041Z,1017.05
2019-03-12T02:55:33.078Z,1017.05
2019-03-12T02:56:33.030Z,1017.04
2019-03-12T02:57:33.157Z,1017.00
2019-03-12T02:58:33.006Z,1016.99
2019-03-12T02:59:33.107Z,1016.97
2019-03-12T03:00:32.970Z,1016.94
2019-03-12T03:01:33.019Z,1016.95
2019-03-12T03:02:32.970Z,1016.94
2019-03-12T03:03:33.020Z,1016.98
2019-03-12T03:04:32.936Z,1016.93
2019-03-12T03:05:32.926Z,1016.92
2019-03-12T03:06:32.903Z,1016.91
2019-03-12T03:07:33.001Z,1016.93
2019-03-12T03:08:32.891Z,1016.84
2019-03-12T03:09:32.959Z,1016.87
2019-03-12T03:10:32.870Z,1016.88
2019-03-12T03:11:32.872Z,1016.85
2019-03-12T03:12:32.857Z,1016.83
2019-03-12T03:13:32.938Z,1016.79
2019-03-12T03:14:33.006Z,1016.76
2019-03-12T03:15:32.912Z,1016.71
2019-03-12T03:16:32.802Z,1016.78
2019-03-12T03:17:32.819Z,1016.80
2019-03-12T03:18:32.783Z,1016.75
2019-03-12T03:19:32.825Z,1016.74
2019-03-12T03:20:32.766Z,1016.72
2019-03-12T03:21:32.835Z,1016.71
2019-03-12T03:22:32.754Z,1016.66
2019-03-12T03:23:32.790Z,1016.62
2019-03-12T03:24:32.722Z,1016.62
2019-03-12T03:25:34.808Z,1016.62
2019-03-12T03:26:32.701Z,1016.65
2019-03-12T03:27:39.740Z,1016.59
2019-03-12T03:28:32.693Z,1016.62
2019-03-12T03:29:32.688Z,1016.59
2019-03-12T03:30:32.674Z,1016.62
2019-03-12T03:31:32.718Z,1016.60
2019-03-12T03:32:32.642Z,1016.64
2019-03-12T03:33:32.654Z,1016.62
2019-03-12T03:34:32.614Z,1016.69
2019-03-12T03:35:32.640Z,1016.64
2019-03-12T03:36:32.609Z,1016.64
2019-03-12T03:37:32.641Z,1016.61
2019-03-12T03:38:32.581Z,1016.64
2019-03-12T03:39:32.657Z,1016.61
2019-03-12T03:40:32.555Z,1016.57
2019-03-12T03:41:34.675Z,1016.54
2019-03-12T03:42:32.529Z,1016.53
2019-03-12T03:43:32.611Z,1016.57
2019-03-12T03:44:32.519Z,1016.52
2019-03-12T03:45:32.607Z,1016.53
2019-03-12T03:46:32.500Z,1016.54
2019-03-12T03:47:32.532Z,1016.56
2019-03-12T03:48:32.493Z,1016.53
2019-03-12T03:49:32.519Z,1016.49
2019-03-12T03:50:32.436Z,1016.52
2019-03-12T03:51:32.534Z,1016.52
2019-03-12T03:52:32.417Z,1016.49
2019-03-12T03:53:32.475Z,1016.49
2019-03-12T03:54:32.392Z,1016.49
2019-03-12T03:55:32.451Z,1016.57
2019-03-12T03:56:32.376Z,1016.52
2019-03-12T03:57:32.474Z,1016.47
2019-03-12T03:58:32.403Z,1016.54
2019-03-12T03:59:32.384Z,1016.57
2019-03-12T04:00:32.345Z,1016.47
2019-03-12T04:01:32.402Z,1016.50
2019-03-12T04:02:32.331Z,1016.47
2019-03-12T04:03:32.334Z,1016.49
2019-03-12T04:04:32.296Z,1016.48
2019-03-12T04:05:32.322Z,1016.48
2019-03-12T04:06:34.315Z,1016.45
2019-03-12T04:07:32.381Z,1016.49
2019-03-12T04:08:32.260Z,1016.44
2019-03-12T04:09:32.346Z,1016.47
2019-03-12T04:10:32.218Z,1016.49
2019-03-12T04:11:32.254Z,1016.44
2019-03-12T04:12:32.216Z,1016.43
2019-03-12T04:13:33.220Z,1016.43
2019-03-12T04:14:32.177Z,1016.46
2019-03-12T04:15:40.165Z,1016.45
2019-03-12T04:16:32.161Z,1016.43
2019-03-12T04:17:39.680Z,1016.40
2019-03-12T04:18:32.153Z,1016.38
2019-03-12T04:19:33.231Z,1016.36
2019-03-12T04:20:32.116Z,1016.31
2019-03-12T04:21:32.118Z,1016.33
2019-03-12T04:22:32.106Z,1016.33
2019-03-12T04:23:32.168Z,1016.37
2019-03-12T04:24:32.075Z,1016.39
2019-03-12T04:25:32.144Z,1016.33
2019-03-12T04:26:32.058Z,1016.33
2019-03-12T04:27:32.055Z,1016.32
2019-03-12T04:28:32.049Z,1016.30
2019-03-12T04:29:32.074Z,1016.35
2019-03-12T04:30:32.015Z,1016.34
2019-03-12T04:31:32.091Z,1016.29
2019-03-12T04:32:31.992Z,1016.32
2019-03-12T04:33:32.029Z,1016.33
2019-03-12T04:34:31.997Z,1016.22
2019-03-12T04:35:32.018Z,1016.31
2019-03-12T04:36:31.946Z,1016.24
2019-03-12T04:37:32.032Z,1016.22
2019-03-12T04:38:31.924Z,1016.24
2019-03-12T04:39:31.966Z,1016.17
2019-03-12T04:40:31.915Z,1016.19
2019-03-12T04:41:31.950Z,1016.13
2019-03-12T04:42:31.883Z,1016.18
2019-03-12T04:43:31.959Z,1016.19
2019-03-12T04:44:31.873Z,1016.15
2019-03-12T04:45:31.881Z,1016.12
2019-03-12T04:46:31.843Z,1016.17
2019-03-12T04:47:31.882Z,1016.09
2019-03-12T04:48:31.817Z,1016.09
2019-03-12T04:49:31.927Z,1016.15
2019-03-12T04:50:31.799Z,1016.12
2019-03-12T04:51:31.817Z,1016.10
2019-03-12T04:52:31.782Z,1016.08
2019-03-12T04:53:31.828Z,1016.12
2019-03-12T04:54:31.769Z,1016.10
2019-03-12T04:55:31.835Z,1016.07
2019-03-12T04:56:31.730Z,1016.04
2019-03-12T04:57:31.756Z,1016.05
2019-03-12T04:58:31.726Z,1016.03
2019-03-12T04:59:32.820Z,1016.07
2019-03-12T05:00:31.696Z,1016.01
2019-03-12T05:01:38.737Z,1016.00
2019-03-12T05:02:31.676Z,1015.95
2019-03-12T05:03:39.678Z,1015.96
2019-03-12T05:04:31.672Z,1015.91
2019-03-12T05:05:39.181Z,1015.94
2019-03-12T05:06:31.627Z,1015.90
2019-03-12T05:07:32.644Z,1015.92
2019-03-12T05:08:31.608Z,1015.87
2019-03-12T05:09:31.667Z,1015.85
2019-03-12T05:10:31.588Z,1015.89
2019-03-12T05:11:31.646Z,1015.85
2019-03-12T05:12:31.582Z,1015.92
2019-03-12T05:13:31.656Z,1015.82
2019-03-12T05:14:31.561Z,1015.82
2019-03-12T05:15:31.569Z,1015.79
2019-03-12T05:16:31.545Z,1015.87
2019-03-12T05:17:31.583Z,1015.78
2019-03-12T05:18:31.497Z,1015.76
2019-03-12T05:19:31.525Z,1015.73
2019-03-12T05:20:31.479Z,1015.74
2019-03-12T05:21:31.504Z,1015.72
2019-03-12T05:22:31.485Z,1015.70
2019-03-12T05:23:31.516Z,1015.65
2019-03-12T05:24:31.448Z,1015.71
2019-03-12T05:25:31.534Z,1015.69
2019-03-12T05:26:31.415Z,1015.67
2019-03-12T05:27:31.443Z,1015.64
2019-03-12T05:28:31.403Z,1015.64
2019-03-12T05:29:31.483Z,1015.63
2019-03-12T05:30:31.372Z,1015.60
2019-03-12T05:31:31.467Z,1015.57
2019-03-12T05:32:31.353Z,1015.55
2019-03-12T05:33:31.383Z,1015.50
2019-03-12T05:34:31.347Z,1015.46
2019-03-12T05:35:31.419Z,1015.45
2019-03-12T05:36:31.318Z,1015.46
2019-03-12T05:37:31.307Z,1015.43
2019-03-12T05:38:31.286Z,1015.44
2019-03-12T05:39:31.349Z,1015.42
2019-03-12T05:40:31.273Z,1015.41
2019-03-12T05:41:31.337Z,1015.40
2019-03-12T05:42:31.244Z,1015.47
2019-03-12T05:43:31.251Z,1015.40
2019-03-12T05:44:31.239Z,1015.34
2019-03-12T05:45:31.260Z,1015.38
2019-03-12T05:46:31.195Z,1015.34
2019-03-12T05:47:32.300Z,1015.45
2019-03-12T05:48:31.178Z,1015.39
2019-03-12T05:49:34.704Z,1015.38
2019-03-12T05:50:31.155Z,1015.28
2019-03-12T05:51:38.173Z,1015.24
2019-03-12T05:52:31.151Z,1015.28
2019-03-12T05:53:33.164Z,1015.17
2019-03-12T05:54:31.127Z,1015.09
2019-03-12T05:55:31.128Z,1015.16
2019-03-12T05:56:31.113Z,1015.18
2019-03-12T05:57:31.155Z,1015.11
2019-03-12T05:58:31.078Z,1015.09
2019-03-12T05:59:31.198Z,1015.12
2019-03-12T06:00:31.058Z,1015.11
2019-03-12T06:01:31.070Z,1015.13
2019-03-12T06:02:31.042Z,1015.05
2019-03-12T06:03:31.100Z,1015.03
2019-03-12T06:04:31.031Z,1015.00
2019-03-12T06:05:31.123Z,1015.03
2019-03-12T06:06:30.995Z,1015.00
2019-03-12T06:07:31.006Z,1014.93
2019-03-12T06:08:30.977Z,1014.93
2019-03-12T06:09:31.028Z,1014.96
2019-03-12T06:10:30.974Z,1014.87
2019-03-12T06:11:31.038Z,1014.92
2019-03-12T06:12:30.920Z,1014.94
2019-03-12T06:13:30.947Z,1014.84
2019-03-12T06:14:30.912Z,1014.95
2019-03-12T06:15:30.983Z,1014.90
2019-03-12T06:16:30.898Z,1014.87
2019-03-12T06:17:30.969Z,1014.84
2019-03-12T06:18:30.877Z,1014.81
2019-03-12T06:19:30.889Z,1014.79
2019-03-12T06:20:30.880Z,1014.81
2019-03-12T06:21:30.903Z,1014.82
2019-03-12T06:22:30.819Z,1014.80
2019-03-12T06:23:30.904Z,1014.76
2019-03-12T06:24:30.803Z,1014.72
2019-03-12T06:25:30.866Z,1014.77
2019-03-12T06:26:30.777Z,1014.80
2019-03-12T06:27:30.835Z,1014.74
2019-03-12T06:28:31.294Z,1014.75
2019-03-12T06:29:30.844Z,1014.69
2019-03-12T06:30:30.748Z,1014.70
2019-03-12T06:31:30.762Z,1014.61
2019-03-12T06:32:30.721Z,1014.59
2019-03-12T06:33:30.769Z,1014.55
2019-03-12T06:34:30.737Z,1014.56
2019-03-12T06:35:34.193Z,1014.55
2019-03-12T06:36:30.664Z,1014.53
2019-03-12T06:37:30.699Z,1014.48
2019-03-12T06:38:30.647Z,1014.56
2019-03-12T06:39:32.698Z,1014.58
2019-03-12T06:40:30.639Z,1014.54
2019-03-12T06:41:31.649Z,1014.50
2019-03-12T06:42:30.608Z,1014.45
2019-03-12T06:43:30.636Z,1014.54
2019-03-12T06:44:30.615Z,1014.47
2019-03-12T06:45:30.685Z,1014.41
2019-03-12T06:46:30.557Z,1014.43
2019-03-12T06:47:30.555Z,1014.44
2019-03-12T06:48:30.546Z,1014.40
2019-03-12T06:49:30.569Z,1014.39
2019-03-12T06:50:30.523Z,1014.42
2019-03-12T06:51:30.583Z,1014.37
2019-03-12T06:52:30.492Z,1014.34
2019-03-12T06:53:30.494Z,1014.32
2019-03-12T06:54:30.480Z,1014.34
2019-03-12T06:55:30.548Z,1014.32
2019-03-12T06:56:30.455Z,1014.30
2019-03-12T06:57:30.529Z,1014.25
2019-03-12T06:58:30.437Z,1014.21
2019-03-12T06:59:30.436Z,1014.23
2019-03-12T07:00:30.429Z,1014.16
2019-03-12T07:01:30.448Z,1014.13
2019-03-12T07:02:30.384Z,1014.17
2019-03-12T07:03:30.465Z,1014.18
2019-03-12T07:04:30.369Z,1014.20
2019-03-12T07:05:30.405Z,1014.15
2019-03-12T07:06:30.350Z,1014.16
2019-03-12T07:07:30.389Z,1014.10
2019-03-12T07:08:30.323Z,1014.12
2019-03-12T07:09:30.412Z,1014.13
2019-03-12T07:10:30.320Z,1014.15
2019-03-12T07:11:30.312Z,1014.07
2019-03-12T07:12:30.285Z,1013.98
2019-03-12T07:13:30.326Z,1013.94
2019-03-12T07:14:30.258Z,1014.01
2019-03-12T07:15:30.427Z,1013.89
2019-03-12T07:16:30.237Z,1013.89
2019-03-12T07:17:30.250Z,1013.86
2019-03-12T07:18:30.214Z,1013.80
2019-03-12T07:19:30.267Z,1013.82
2019-03-12T07:20:30.210Z,1014.00
2019-03-12T07:21:30.279Z,1013.77
2019-03-12T07:22:30.170Z,1013.81
2019-03-12T07:23:37.152Z,1013.83
2019-03-12T07:24:30.159Z,1013.81
2019-03-12T07:25:32.182Z,1013.78
2019-03-12T07:26:30.134Z,1013.83
2019-03-12T07:27:31.160Z,1013.81
2019-03-12T07:28:30.104Z,1013.81
2019-03-12T07:29:30.129Z,1013.76
2019-03-12T07:30:30.087Z,1013.77
2019-03-12T07:31:30.184Z,1013.76
2019-03-12T07:32:30.108Z,1013.77
2019-03-12T07:33:31.083Z,1013.79
2019-03-12T07:34:36.474Z,1013.59
2019-03-12T07:35:31.091Z,1013.52
2019-03-12T07:36:30.032Z,1013.50
2019-03-12T07:37:30.079Z,1013.56
2019-03-12T07:38:30.002Z,1013.52
2019-03-12T07:39:30.097Z,1013.42
2019-03-12T07:40:29.984Z,1013.47
2019-03-12T07:41:32.485Z,1013.47
2019-03-12T07:42:29.954Z,1013.34
2019-03-12T07:43:30.018Z,1013.41
2019-03-12T07:44:29.928Z,1013.59
2019-03-12T07:45:29.930Z,1013.35
2019-03-12T07:46:29.923Z,1013.37
2019-03-12T07:47:35.580Z,1013.36
2019-03-12T07:48:30.888Z,1013.35
2019-03-12T07:49:29.960Z,1013.28
2019-03-12T07:50:29.866Z,1013.26
2019-03-12T07:51:29.911Z,1013.30
2019-03-12T07:52:29.853Z,1013.33
2019-03-12T07:53:29.888Z,1013.26
2019-03-12T07:54:29.839Z,1013.19
2019-03-12T07:55:30.082Z,1013.21
2019-03-12T07:56:29.812Z,1013.21
2019-03-12T07:57:29.806Z,1013.28
2019-03-12T07:58:35.721Z,1013.18
2019-03-12T07:59:30.866Z,1013.14
2019-03-12T08:00:29.763Z,1013.15
2019-03-12T08:01:29.925Z,1013.23
2019-03-12T08:02:29.745Z,1013.15
2019-03-12T08:03:29.754Z,1013.14
2019-03-12T08:04:29.732Z,1013.21
2019-03-12T08:05:29.782Z,1013.15
2019-03-12T08:06:29.716Z,1013.19
2019-03-12T08:07:29.773Z,1013.18
2019-03-12T08:08:29.683Z,1013.08
2019-03-12T08:09:36.666Z,1013.14
2019-03-12T08:10:29.652Z,1013.14
2019-03-12T08:11:31.685Z,1013.13
2019-03-12T08:12:29.622Z,1013.16
2019-03-12T08:13:29.712Z,1013.16
2019-03-12T08:14:29.624Z,1013.15
2019-03-12T08:15:29.623Z,1013.12
2019-03-12T08:16:29.597Z,1013.17
2019-03-12T08:17:29.638Z,1013.14
2019-03-12T08:18:29.556Z,1013.13
2019-03-12T08:19:29.652Z,1013.05
2019-03-12T08:20:29.534Z,1013.10
2019-03-12T08:21:29.595Z,1013.08
2019-03-12T08:22:29.517Z,1012.98
2019-03-12T08:23:29.576Z,1013.05
2019-03-12T08:24:29.490Z,1013.05
2019-03-12T08:25:29.592Z,1013.01
2019-03-12T08:26:29.514Z,1013.05
2019-03-12T08:27:29.501Z,1013.02
2019-03-12T08:28:29.448Z,1013.02
2019-03-12T08:29:29.517Z,1013.06
2019-03-12T08:30:29.426Z,1013.06
2019-03-12T08:31:29.467Z,1013.06
2019-03-12T08:32:29.413Z,1013.03
2019-03-12T08:33:29.439Z,1013.09
2019-03-12T08:34:29.384Z,1013.07
2019-03-12T08:35:29.455Z,1013.01
2019-03-12T08:36:29.373Z,1012.99
2019-03-12T08:37:29.373Z,1012.95
2019-03-12T08:38:29.338Z,1012.93
2019-03-12T08:39:29.384Z,1012.93
2019-03-12T08:40:29.325Z,1012.96
2019-03-12T08:41:29.434Z,1012.85
2019-03-12T08:42:29.295Z,1012.90
2019-03-12T08:43:29.307Z,1012.86
2019-03-12T08:44:29.278Z,1012.77
2019-03-12T08:45:29.419Z,1012.74
2019-03-12T08:46:29.263Z,1012.80
2019-03-12T08:47:29.332Z,1012.76
2019-03-12T08:48:29.229Z,1012.71
2019-03-12T08:49:29.243Z,1012.66
2019-03-12T08:50:29.229Z,1012.64
2019-03-12T08:51:29.290Z,1012.62
2019-03-12T08:52:29.191Z,1012.55
2019-03-12T08:53:29.270Z,1012.52
2019-03-12T08:54:29.162Z,1012.50
2019-03-12T08:55:36.145Z,1012.53
2019-03-12T08:56:29.145Z,1012.48
2019-03-12T08:57:29.234Z,1012.50
2019-03-12T08:58:29.118Z,1012.45
2019-03-12T08:59:30.130Z,1012.43
2019-03-12T09:00:29.099Z,1012.42
2019-03-12T09:01:29.129Z,1012.34
2019-03-12T09:02:29.091Z,1012.42
2019-03-12T09:03:29.154Z,1012.42
2019-03-12T09:04:29.074Z,1012.39
2019-03-12T09:05:29.148Z,1012.40
2019-03-12T09:06:29.032Z,1012.33
2019-03-12T09:07:29.095Z,1012.30
2019-03-12T09:08:29.012Z,1012.29
2019-03-12T09:09:29.074Z,1012.36
2019-03-12T09:10:28.995Z,1012.25
2019-03-12T09:11:29.126Z,1012.22
2019-03-12T09:12:28.995Z,1012.19
2019-03-12T09:13:29.000Z,1012.18
2019-03-12T09:14:28.948Z,1012.20
2019-03-12T09:15:29.018Z,1012.18
2019-03-12T09:16:28.929Z,1012.07
2019-03-12T09:17:28.955Z,1012.16
2019-03-12T09:18:28.913Z,1012.14
2019-03-12T09:19:28.936Z,1012.00
2019-03-12T09:20:28.880Z,1012.07
2019-03-12T09:21:28.951Z,1011.99
2019-03-12T09:22:28.872Z,1012.05
2019-03-12T09:23:28.866Z,1012.01
2019-03-12T09:24:28.838Z,1011.97
2019-03-12T09:25:28.884Z,1011.87
2019-03-12T09:26:28.819Z,1011.90
2019-03-12T09:27:28.922Z,1011.87
2019-03-12T09:28:28.797Z,1011.88
2019-03-12T09:29:28.803Z,1011.91
2019-03-12T09:30:28.776Z,1011.85
2019-03-12T09:31:28.821Z,1011.75
2019-03-12T09:32:28.763Z,1011.65
2019-03-12T09:33:28.832Z,1011.73
2019-03-12T09:34:28.728Z,1011.70
2019-03-12T09:35:28.748Z,1011.67
2019-03-12T09:36:28.711Z,1011.57
2019-03-12T09:37:28.784Z,1011.57
2019-03-12T09:38:28.709Z,1011.49
2019-03-12T09:39:28.768Z,1011.47
2019-03-12T09:40:28.665Z,1011.49
2019-03-12T09:41:28.687Z,1011.36
2019-03-12T09:42:28.683Z,1011.34
2019-03-12T09:43:28.694Z,1011.26
2019-03-12T09:44:28.630Z,1011.24
2019-03-12T09:45:29.679Z,1011.18
2019-03-12T09:46:28.616Z,1011.14
2019-03-12T09:47:28.674Z,1011.02
2019-03-12T09:48:28.577Z,1011.05
2019-03-12T09:49:28.661Z,1011.10
2019-03-12T09:50:28.559Z,1011.12
2019-03-12T09:51:28.645Z,1011.00
2019-03-12T09:52:28.544Z,1010.96
2019-03-12T09:53:28.557Z,1011.00
2019-03-12T09:54:28.517Z,1010.95
2019-03-12T09:55:28.576Z,1010.97
2019-03-12T09:56:28.494Z,1010.83
2019-03-12T09:57:28.517Z,1010.76
2019-03-12T09:58:28.475Z,1010.81
2019-03-12T09:59:28.496Z,1010.70
2019-03-12T10:00:28.450Z,1010.73
2019-03-12T10:01:28.512Z,1010.61
2019-03-12T10:02:28.445Z,1010.53
2019-03-12T10:03:28.531Z,1010.53
2019-03-12T10:04:28.540Z,1010.46
2019-03-12T10:05:28.435Z,1010.45
2019-03-12T10:06:28.386Z,1010.37
2019-03-12T10:07:28.651Z,1010.37
2019-03-12T10:08:28.504Z,1010.25
2019-03-12T10:09:28.461Z,1010.24
2019-03-12T10:10:28.345Z,1010.19
2019-03-12T10:11:28.379Z,1010.17
2019-03-12T10:12:28.330Z,1010.20
2019-03-12T10:13:28.385Z,1010.13
2019-03-12T10:14:28.295Z,1010.13
2019-03-12T10:15:28.299Z,1010.05
2019-03-12T10:16:28.274Z,1009.90
2019-03-12T10:17:28.350Z,1009.85
2019-03-12T10:18:28.247Z,1009.81
2019-03-12T10:19:28.332Z,1009.79
2019-03-12T10:20:28.232Z,1009.73
2019-03-12T10:21:28.298Z,1009.67
2019-03-12T10:22:28.223Z,1009.66
2019-03-12T10:23:28.251Z,1009.69
2019-03-12T10:24:28.919Z,1009.66
2019-03-12T10:25:29.295Z,1009.67
2019-03-12T10:26:28.172Z,1009.65
2019-03-12T10:27:28.210Z,1009.56
2019-03-12T10:28:28.144Z,1009.60
2019-03-12T10:29:34.748Z,1009.62
2019-03-12T10:30:28.135Z,1009.59
2019-03-12T10:31:29.135Z,1009.45
2019-03-12T10:32:28.107Z,1009.45
2019-03-12T10:33:28.143Z,1009.48
2019-03-12T10:34:29.857Z,1009.35
2019-03-12T10:35:28.129Z,1009.30
2019-03-12T10:36:30.914Z,1009.30
2019-03-12T10:37:28.153Z,1009.20
2019-03-12T10:38:28.045Z,1009.19
2019-03-12T10:39:28.059Z,1009.16
2019-03-12T10:40:28.012Z,1009.12
2019-03-12T10:41:28.071Z,1009.08
2019-03-12T10:42:28.012Z,1008.98
2019-03-12T10:43:28.019Z,1009.06
2019-03-12T10:44:27.983Z,1008.94
2019-03-12T10:45:27.990Z,1009.01
2019-03-12T10:46:27.939Z,1008.99
2019-03-12T10:47:28.009Z,1008.87
2019-03-12T10:48:27.951Z,1008.95
2019-03-12T10:49:37.304Z,1008.96
2019-03-12T10:50:28.892Z,1009.04
2019-03-12T10:51:27.966Z,1009.05
2019-03-12T10:52:27.907Z,1008.97
2019-03-12T10:53:27.971Z,1008.87
2019-03-12T10:54:27.849Z,1009.08
2019-03-12T10:55:27.856Z,1008.91
2019-03-12T10:56:27.827Z,1008.85
2019-03-12T10:57:27.876Z,1008.82
2019-03-12T10:58:27.826Z,1008.86
2019-03-12T10:59:27.882Z,1008.70
2019-03-12T11:00:27.786Z,1008.76
2019-03-12T11:01:27.796Z,1008.75
2019-03-12T11:02:27.760Z,1008.93
2019-03-12T11:03:27.845Z,1008.75
2019-03-12T11:04:27.742Z,1008.81
2019-03-12T11:05:27.837Z,1008.71
2019-03-12T11:06:27.736Z,1008.72
2019-03-12T11:07:27.731Z,1008.68
2019-03-12T11:08:27.715Z,1008.65
2019-03-12T11:09:27.751Z,1008.63
2019-03-12T11:10:27.699Z,1008.68
2019-03-12T11:11:35.648Z,1008.51
2019-03-12T11:12:27.660Z,1008.50
2019-03-12T11:13:34.670Z,1008.46
2019-03-12T11:14:27.663Z,1008.40
2019-03-12T11:15:34.239Z,1008.34
2019-03-12T11:16:27.614Z,1008.43
2019-03-12T11:17:28.636Z,1008.46
2019-03-12T11:18:27.602Z,1008.38
2019-03-12T11:19:27.582Z,1008.33
2019-03-12T11:20:27.570Z,1008.34
2019-03-12T11:21:27.631Z,1008.32
2019-03-12T11:22:27.573Z,1008.35
2019-03-12T11:23:27.565Z,1008.28
2019-03-12T11:24:27.530Z,1008.24
2019-03-12T11:25:28.305Z,1008.33
2019-03-12T11:26:27.497Z,1008.15
2019-03-12T11:27:27.564Z,1008.15
2019-03-12T11:28:27.499Z,1008.14
2019-03-12T11:29:27.587Z,1008.26
2019-03-12T11:30:27.458Z,1008.16
2019-03-12T11:31:27.492Z,1008.08
2019-03-12T11:32:27.458Z,1008.02
2019-03-12T11:33:27.560Z,1008.09
2019-03-12T11:34:27.409Z,1008.03
2019-03-12T11:35:38.223Z,1008.01
2019-03-12T11:36:28.519Z,1007.87
2019-03-12T11:37:27.427Z,1007.88
2019-03-12T11:38:27.382Z,1007.98
2019-03-12T11:39:27.440Z,1007.87
2019-03-12T11:40:31.980Z,1007.89
2019-03-12T11:41:28.381Z,1007.74
2019-03-12T11:42:27.365Z,1007.69
2019-03-12T11:43:27.453Z,1007.71
2019-03-12T11:44:27.303Z,1007.70
2019-03-12T11:45:36.339Z,1007.67
2019-03-12T11:46:28.273Z,1007.61
2019-03-12T11:47:27.289Z,1007.65
2019-03-12T11:48:27.297Z,1007.49
2019-03-12T11:49:27.311Z,1007.46
2019-03-12T11:50:27.256Z,1007.40
2019-03-12T11:51:27.323Z,1007.32
2019-03-12T11:52:27.210Z,1007.32
2019-03-12T11:53:27.249Z,1007.28
2019-03-12T11:54:27.202Z,1007.26
2019-03-12T11:55:27.253Z,1007.23
2019-03-12T11:56:27.170Z,1007.25
2019-03-12T11:57:28.211Z,1007.21
2019-03-12T11:58:27.160Z,1007.15
2019-03-12T11:59:32.223Z,1007.10
2019-03-12T12:00:27.622Z,1007.15
2019-03-12T12:01:29.161Z,1007.08
2019-03-12T12:02:27.113Z,1007.10
2019-03-12T12:03:29.144Z,1007.13
2019-03-12T12:04:27.104Z,1007.15
2019-03-12T12:05:27.107Z,1007.09